createdAt,value
2017-08-10T00:00:32.875Z,64.84
2017-08-10T00:01:42.618Z,64.75
2017-08-10T00:02:52.341Z,64.87
2017-08-10T00:04:02.376Z,65.17
2017-08-10T00:05:12.149Z,64.84
2017-08-10T00:06:22.513Z,65.26
2017-08-10T00:07:32.870Z,64.87
2017-08-10T00:08:43.237Z,64.49
2017-08-10T00:09:53.608Z,64.59
2017-08-10T00:11:04.061Z,64.69
2017-08-10T00:12:14.102Z,64.97
2017-08-10T00:13:24.455Z,65.07
2017-08-10T00:14:34.519Z,65.17
2017-08-10T00:15:44.860Z,65.07
2017-08-10T00:16:57.068Z,65.26
2017-08-10T00:18:07.415Z,65.26
2017-08-10T00:19:17.762Z,65.26
2017-08-10T00:20:27.823Z,65.26
2017-08-10T00:21:38.188Z,64.78
2017-08-10T00:22:48.592Z,65.17
2017-08-10T00:23:58.651Z,64.59
2017-08-10T00:25:09.000Z,64.97
2017-08-10T00:26:19.045Z,64.78
2017-08-10T00:27:29.394Z,64.97
2017-08-10T00:28:41.698Z,64.59
2017-08-10T00:29:52.059Z,64.81
2017-08-10T00:31:01.786Z,64.78
2017-08-10T00:32:11.834Z,64.97
2017-08-10T00:33:22.209Z,65.17
2017-08-10T00:34:32.295Z,65.17
2017-08-10T00:35:42.674Z,65.17
2017-08-10T00:36:53.020Z,65.17
2017-08-10T00:38:03.368Z,64.97
2017-08-10T00:39:13.721Z,65.17
2017-08-10T00:40:24.121Z,65.17
2017-08-10T00:41:34.169Z,65.07
2017-08-10T00:42:44.237Z,65.46
2017-08-10T00:43:54.278Z,65.36
2017-08-10T00:45:04.626Z,65.36
2017-08-10T00:46:14.708Z,65.36
2017-08-10T00:47:25.056Z,65.66
2017-08-10T00:48:35.098Z,65.66
2017-08-10T00:49:45.454Z,65.56
2017-08-10T00:50:55.806Z,65.66
2017-08-10T00:52:06.215Z,65.66
2017-08-10T00:53:16.558Z,65.66
2017-08-10T00:54:26.908Z,65.66
2017-08-10T00:55:37.250Z,65.75
2017-08-10T00:56:47.615Z,65.53
2017-08-10T00:57:58.021Z,65.72
2017-08-10T00:59:08.080Z,65.72
2017-08-10T01:00:18.127Z,65.23
2017-08-10T01:01:28.478Z,65.53
2017-08-10T01:02:38.523Z,65.72
2017-08-10T01:03:48.966Z,65.43
2017-08-10T01:04:58.689Z,65.43
2017-08-10T01:06:09.048Z,65.43
2017-08-10T01:07:19.395Z,65.63
2017-08-10T01:08:29.752Z,65.56
2017-08-10T01:09:39.533Z,65.66
2017-08-10T01:10:49.256Z,65.56
2017-08-10T01:11:59.602Z,65.46
2017-08-10T01:13:09.638Z,65.66
2017-08-10T01:14:19.984Z,65.56
2017-08-10T01:15:30.393Z,65.46
2017-08-10T01:16:40.433Z,65.75
2017-08-10T01:17:50.807Z,65.75
2017-08-10T01:19:00.838Z,65.66
2017-08-10T01:20:11.182Z,65.56
2017-08-10T01:21:20.983Z,65.66
2017-08-10T01:22:31.022Z,65.72
2017-08-10T01:23:41.365Z,65.72
2017-08-10T01:24:51.736Z,65.53
2017-08-10T01:26:02.085Z,65.63
2017-08-10T01:27:12.485Z,65.63
2017-08-10T01:28:22.850Z,65.63
2017-08-10T01:29:33.219Z,65.43
2017-08-10T01:30:43.259Z,65.72
2017-08-10T01:31:53.018Z,65.33
2017-08-10T01:33:03.410Z,65.33
2017-08-10T01:34:13.759Z,65.43
2017-08-10T01:35:24.129Z,65.43
2017-08-10T01:36:34.481Z,65.43
2017-08-10T01:37:44.839Z,65.33
2017-08-10T01:38:55.244Z,65.43
2017-08-10T01:40:05.592Z,65.63
2017-08-10T01:41:15.626Z,65.59
2017-08-10T01:42:25.981Z,65.59
2017-08-10T01:43:36.010Z,65.11
2017-08-10T01:44:47.948Z,65.5
2017-08-10T01:45:57.683Z,65.11
2017-08-10T01:47:07.704Z,65.5
2017-08-10T01:48:18.052Z,65.4
2017-08-10T01:49:28.399Z,65.4
2017-08-10T01:50:38.802Z,65.3
2017-08-10T01:51:49.189Z,65.59
2017-08-10T01:52:59.541Z,65.3
2017-08-10T01:54:09.899Z,65.59
2017-08-10T01:55:20.267Z,65.5
2017-08-10T01:56:30.345Z,65.3
2017-08-10T01:57:40.708Z,65.2
2017-08-10T01:58:51.062Z,65.5
2017-08-10T02:00:01.405Z,65.2
2017-08-10T02:01:11.475Z,65.2
2017-08-10T02:02:21.574Z,65.5
2017-08-10T02:03:33.074Z,65.37
2017-08-10T02:04:43.431Z,65.4
2017-08-10T02:05:53.778Z,65.5
2017-08-10T02:07:03.504Z,65.37
2017-08-10T02:08:13.911Z,65.4
2017-08-10T02:09:24.256Z,65.69
2017-08-10T02:10:34.628Z,65.46
2017-08-10T02:11:44.977Z,65.69
2017-08-10T02:12:55.315Z,65.37
2017-08-10T02:14:05.417Z,65.69
2017-08-10T02:15:15.764Z,65.4
2017-08-10T02:16:26.107Z,65.79
2017-08-10T02:17:36.469Z,65.66
2017-08-10T02:18:47.362Z,65.37
2017-08-10T02:19:57.755Z,65.37
2017-08-10T02:21:07.486Z,65.08
2017-08-10T02:22:17.532Z,65.46
2017-08-10T02:23:27.890Z,65.56
2017-08-10T02:24:38.242Z,65.33
2017-08-10T02:25:48.634Z,65.04
2017-08-10T02:26:58.679Z,65.33
2017-08-10T02:28:09.040Z,65.27
2017-08-10T02:29:19.407Z,65.37
2017-08-10T02:30:29.442Z,65.23
2017-08-10T02:31:39.857Z,65.43
2017-08-10T02:32:50.217Z,65.04
2017-08-10T02:34:00.270Z,65.14
2017-08-10T02:35:10.615Z,65.5
2017-08-10T02:36:20.967Z,65.11
2017-08-10T02:37:31.060Z,65.59
2017-08-10T02:38:41.405Z,65.3
2017-08-10T02:39:51.131Z,65.3
2017-08-10T02:41:01.688Z,65.69
2017-08-10T02:42:12.038Z,65.4
2017-08-10T02:43:22.140Z,65.5
2017-08-10T02:44:32.190Z,65.4
2017-08-10T02:45:41.917Z,65.4
2017-08-10T02:46:52.257Z,65.3
2017-08-10T02:48:02.612Z,65.47
2017-08-10T02:49:13.007Z,65.47
2017-08-10T02:50:23.364Z,65.08
2017-08-10T02:51:33.707Z,65.37
2017-08-10T02:52:43.744Z,65.37
2017-08-10T02:53:53.809Z,65.43
2017-08-10T02:55:04.214Z,65.24
2017-08-10T02:56:14.581Z,65.33
2017-08-10T02:57:24.611Z,65.43
2017-08-10T02:58:34.966Z,65.43
2017-08-10T02:59:44.694Z,65.33
2017-08-10T03:00:55.086Z,65.33
2017-08-10T03:33:22.796Z,63.47
2017-08-10T03:34:33.144Z,63.85
2017-08-10T03:35:43.484Z,64.14
2017-08-10T03:36:53.824Z,64.82
2017-08-10T03:38:04.182Z,64.63
2017-08-10T03:39:14.585Z,65.5
2017-08-10T03:40:24.941Z,65.4
2017-08-10T03:41:34.968Z,65.88
2017-08-10T03:42:46.096Z,66.08
2017-08-10T03:43:56.436Z,66.11
2017-08-10T03:45:06.524Z,66.3
2017-08-10T03:46:16.573Z,66.14
2017-08-10T03:47:26.924Z,65.95
2017-08-10T03:48:37.279Z,66.24
2017-08-10T03:49:47.625Z,66.37
2017-08-10T03:50:57.707Z,65.59
2017-08-10T03:52:08.087Z,65.59
2017-08-10T03:53:18.446Z,65.59
2017-08-10T03:54:28.474Z,65.63
2017-08-10T03:55:38.835Z,65.63
2017-08-10T03:56:49.254Z,65.63
2017-08-10T03:57:59.616Z,65.14
2017-08-10T03:59:09.970Z,65.08
2017-08-10T04:00:20.321Z,65.17
2017-08-10T04:01:30.669Z,65.17
2017-08-10T04:02:41.090Z,65.08
2017-08-10T04:03:51.692Z,64.89
2017-08-10T04:05:02.072Z,65.3
2017-08-10T04:06:12.464Z,65.27
2017-08-10T04:07:22.819Z,65.11
2017-08-10T04:08:32.906Z,65.2
2017-08-10T04:09:42.935Z,65.4
2017-08-10T04:10:53.276Z,65.11
2017-08-10T04:12:03.618Z,65.4
2017-08-10T04:13:13.669Z,65.2
2017-08-10T04:14:24.066Z,65.4
2017-08-10T04:15:34.395Z,64.92
2017-08-10T04:16:44.751Z,65.01
2017-08-10T04:17:55.119Z,65.11
2017-08-10T04:19:05.469Z,65.11
2017-08-10T04:20:15.563Z,64.65
2017-08-10T04:21:25.908Z,64.85
2017-08-10T04:22:36.274Z,64.65
2017-08-10T04:23:46.317Z,64.95
2017-08-10T04:24:56.664Z,64.56
2017-08-10T04:26:07.084Z,64.85
2017-08-10T04:27:17.435Z,64.85
2017-08-10T04:28:27.784Z,64.95
2017-08-10T04:29:38.145Z,64.95
2017-08-10T04:30:48.191Z,64.95
2017-08-10T04:31:58.296Z,64.3
2017-08-10T04:33:08.673Z,64.11
2017-08-10T04:34:19.040Z,64.4
2017-08-10T04:35:29.404Z,64.11
2017-08-10T04:36:39.748Z,64.04
2017-08-10T04:37:49.826Z,63.65
2017-08-10T04:39:00.168Z,64.14
2017-08-10T04:40:10.530Z,64.23
2017-08-10T04:41:20.897Z,63.85
2017-08-10T04:42:31.260Z,64.07
2017-08-10T04:43:41.676Z,64.07
2017-08-10T04:44:52.024Z,63.91
2017-08-10T04:46:02.072Z,63.81
2017-08-10T04:47:12.408Z,63.52
2017-08-10T04:48:22.762Z,63.75
2017-08-10T04:49:33.167Z,63.26
2017-08-10T04:50:43.214Z,62.81
2017-08-10T04:51:53.570Z,63.2
2017-08-10T04:53:03.921Z,62.32
2017-08-10T04:54:14.280Z,61.9
2017-08-10T04:55:24.069Z,61.05
2017-08-10T04:56:34.435Z,61.27
2017-08-10T04:57:44.472Z,60.72
2017-08-10T04:58:54.820Z,61.4
2017-08-10T05:00:05.170Z,61.14
2017-08-10T05:01:15.558Z,61.36
2017-08-10T05:02:25.920Z,61.17
2017-08-10T05:03:36.272Z,61
2017-08-10T05:04:46.329Z,61.23
2017-08-10T05:05:56.712Z,61.43
2017-08-10T05:07:06.800Z,61.33
2017-08-10T05:08:17.149Z,61.62
2017-08-10T05:09:27.176Z,61.74
2017-08-10T05:10:37.522Z,61.45
2017-08-10T05:11:47.875Z,61.25
2017-08-10T05:12:58.283Z,61.48
2017-08-10T05:14:08.037Z,61.48
2017-08-10T05:15:18.078Z,61.38
2017-08-10T05:16:28.431Z,61.8
2017-08-10T05:17:38.464Z,61.44
2017-08-10T05:18:48.540Z,62.03
2017-08-10T05:19:58.582Z,61.38
2017-08-10T05:21:08.629Z,61.47
2017-08-10T05:22:18.991Z,61.11
2017-08-10T05:23:28.710Z,61.31
2017-08-10T05:24:39.132Z,61.15
2017-08-10T05:25:48.850Z,61.44
2017-08-10T05:26:59.225Z,61.63
2017-08-10T05:28:09.599Z,61.27
2017-08-10T05:29:19.652Z,61.47
2017-08-10T05:30:30.056Z,61.37
2017-08-10T05:31:40.425Z,61.47
2017-08-10T05:32:50.464Z,61.96
2017-08-10T05:34:00.817Z,61.2
2017-08-10T05:35:11.180Z,61.6
2017-08-10T05:36:21.274Z,61.2
2017-08-10T05:37:31.622Z,61
2017-08-10T05:38:41.669Z,61.4
2017-08-10T05:39:52.001Z,61.2
2017-08-10T05:41:02.062Z,61.89
2017-08-10T05:42:12.475Z,61.13
2017-08-10T05:43:22.530Z,61.43
2017-08-10T05:44:32.887Z,61.72
2017-08-10T05:45:42.932Z,61.43
2017-08-10T05:46:52.676Z,61.72
2017-08-10T05:48:03.094Z,61.46
2017-08-10T05:49:13.447Z,61.16
2017-08-10T05:50:23.822Z,61.36
2017-08-10T05:51:34.205Z,61.46
2017-08-10T05:52:44.578Z,61.49
2017-08-10T05:53:54.683Z,61.29
2017-08-10T05:55:05.049Z,61.78
2017-08-10T05:56:15.399Z,61.22
2017-08-10T05:57:25.789Z,61.16
2017-08-10T05:58:36.129Z,60.96
2017-08-10T05:59:46.223Z,60.47
2017-08-10T06:00:56.279Z,60.5
2017-08-10T06:02:06.630Z,60.5
2017-08-10T06:03:16.687Z,61.02
2017-08-10T06:04:26.733Z,61.38
2017-08-10T06:05:37.156Z,60.99
2017-08-10T06:06:47.305Z,61.87
2017-08-10T06:07:57.723Z,61.58
2017-08-10T06:09:08.110Z,61.48
2017-08-10T06:10:18.469Z,61.29
2017-08-10T06:11:28.899Z,61.74
2017-08-10T06:12:39.264Z,61.45
2017-08-10T06:13:49.620Z,61.35
2017-08-10T06:14:59.981Z,61.94
2017-08-10T06:16:10.048Z,61.94
2017-08-10T06:17:20.447Z,62.01
2017-08-10T06:18:30.795Z,62.4
2017-08-10T06:19:40.842Z,62.3
2017-08-10T06:20:51.201Z,61.98
2017-08-10T06:22:00.924Z,62.08
2017-08-10T06:23:11.342Z,62.47
2017-08-10T06:24:21.389Z,61.85
2017-08-10T06:25:31.763Z,62.24
2017-08-10T06:26:41.812Z,62.34
2017-08-10T06:27:51.855Z,61.65
2017-08-10T06:29:02.265Z,61.76
2017-08-10T06:30:12.611Z,61.19
2017-08-10T06:31:22.035Z,62.08
2017-08-10T06:32:31.457Z,61.58
2017-08-10T06:33:41.496Z,61.78
2017-08-10T06:34:51.898Z,61.78
2017-08-10T06:36:02.272Z,61.88
2017-08-10T06:37:12.629Z,61.68
2017-08-10T06:38:22.980Z,62.08
2017-08-10T06:39:32.706Z,61.29
2017-08-10T06:40:43.117Z,61.29
2017-08-10T06:41:53.485Z,62.15
2017-08-10T06:43:03.522Z,61.85
2017-08-10T06:44:13.245Z,62.34
2017-08-10T06:45:22.999Z,62.31
2017-08-10T06:46:33.099Z,61.72
2017-08-10T06:47:43.469Z,61.72
2017-08-10T06:48:53.526Z,62.02
2017-08-10T06:50:03.893Z,61.43
2017-08-10T06:51:13.938Z,61.72
2017-08-10T06:52:24.040Z,61.52
2017-08-10T06:53:34.400Z,61.07
2017-08-10T06:54:44.747Z,60.7
2017-08-10T06:55:54.786Z,60.63
2017-08-10T06:57:05.152Z,60.53
2017-08-10T06:58:15.574Z,60.63
2017-08-10T06:59:25.948Z,60.57
2017-08-10T07:00:36.309Z,60.57
2017-08-10T07:01:46.376Z,60.37
2017-08-10T07:02:56.741Z,60.76
2017-08-10T07:04:07.159Z,61.16
2017-08-10T07:05:16.886Z,60.96
2017-08-10T07:06:27.260Z,61.91
2017-08-10T07:07:37.619Z,61.32
2017-08-10T07:08:47.683Z,61.61
2017-08-10T07:09:58.093Z,61.71
2017-08-10T07:11:08.529Z,61.49
2017-08-10T07:12:18.882Z,61.88
2017-08-10T07:13:29.233Z,62.18
2017-08-10T07:14:39.283Z,61.98
2017-08-10T07:15:49.701Z,61.98
2017-08-10T07:17:00.068Z,61.78
2017-08-10T07:18:10.426Z,62.08
2017-08-10T07:19:20.778Z,61.76
2017-08-10T07:20:31.133Z,62.27
2017-08-10T07:21:41.543Z,62.34
2017-08-10T07:22:51.898Z,62.34
2017-08-10T07:24:02.286Z,62.24
2017-08-10T07:25:12.650Z,62.24
2017-08-10T07:26:23.002Z,62.44
2017-08-10T07:27:33.420Z,63.2
2017-08-10T07:28:43.467Z,63.2
2017-08-10T07:29:53.816Z,62.87
2017-08-10T07:31:04.163Z,62.87
2017-08-10T07:32:14.517Z,63.26
2017-08-10T07:33:24.917Z,62.87
2017-08-10T07:34:35.280Z,62.87
2017-08-10T07:35:45.637Z,62.74
2017-08-10T07:36:55.990Z,62.87
2017-08-10T07:38:06.035Z,62.94
2017-08-10T07:39:17.429Z,62.74
2017-08-10T07:40:27.785Z,62.94
2017-08-10T07:41:38.153Z,62.25
2017-08-10T07:42:48.520Z,61.99
2017-08-10T07:43:58.580Z,61.89
2017-08-10T07:45:08.985Z,61.33
2017-08-10T07:46:19.344Z,61.33
2017-08-10T07:47:29.725Z,61.33
2017-08-10T07:48:40.081Z,61.36
2017-08-10T07:49:50.428Z,61.49
2017-08-10T07:51:00.848Z,61.39
2017-08-10T07:52:11.218Z,61.29
2017-08-10T07:53:21.571Z,61.88
2017-08-10T07:54:31.624Z,61.42
2017-08-10T07:55:41.996Z,61.13
2017-08-10T07:56:52.417Z,61.22
2017-08-10T07:58:02.706Z,61.32
2017-08-10T07:59:12.760Z,61.81
2017-08-10T08:00:22.812Z,61.42
2017-08-10T08:01:33.175Z,61.35
2017-08-10T08:02:43.524Z,61.52
2017-08-10T08:03:53.255Z,61.35
2017-08-10T08:05:03.622Z,61.74
2017-08-10T08:06:14.023Z,61.84
2017-08-10T08:07:24.075Z,60.99
2017-08-10T08:08:34.434Z,61.48
2017-08-10T08:09:44.802Z,61.87
2017-08-10T08:10:55.177Z,62.34
2017-08-10T08:12:05.587Z,62.4
2017-08-10T08:13:15.980Z,62.3
2017-08-10T08:14:26.340Z,62.18
2017-08-10T08:15:36.685Z,62.08
2017-08-10T08:16:47.296Z,62.3
2017-08-10T08:17:57.389Z,61.61
2017-08-10T08:19:08.501Z,62.01
2017-08-10T08:20:18.969Z,61.81
2017-08-10T08:21:29.010Z,61.55
2017-08-10T08:22:39.369Z,61.74
2017-08-10T08:23:49.779Z,61.97
2017-08-10T08:24:59.822Z,61.97
2017-08-10T08:26:09.243Z,61.68
2017-08-10T08:27:19.283Z,61.68
2017-08-10T08:28:29.637Z,61.68
2017-08-10T08:29:39.734Z,61.97
2017-08-10T08:30:50.076Z,61.51
2017-08-10T08:32:00.131Z,61.58
2017-08-10T08:33:10.490Z,61.68
2017-08-10T08:34:20.827Z,61.61
2017-08-10T08:35:31.248Z,61.15
2017-08-10T08:36:40.658Z,60.58
2017-08-10T08:37:50.720Z,60.58
2017-08-10T08:39:01.066Z,60.41
2017-08-10T08:40:11.416Z,60.15
2017-08-10T08:41:21.828Z,59.85
2017-08-10T08:42:33.658Z,59.69
2017-08-10T08:43:43.696Z,59.32
2017-08-10T08:44:54.047Z,59.71
2017-08-10T08:46:04.407Z,60.41
2017-08-10T08:47:14.819Z,60.31
2017-08-10T08:48:25.194Z,60.9
2017-08-10T08:49:35.280Z,60.67
2017-08-10T08:50:45.646Z,60.94
2017-08-10T08:51:56.012Z,61.36
2017-08-10T08:53:06.112Z,61.24
2017-08-10T08:54:16.492Z,61.53
2017-08-10T08:55:26.857Z,61.04
2017-08-10T08:56:37.211Z,61.43
2017-08-10T08:57:47.248Z,61.8
2017-08-10T08:58:57.673Z,61.8
2017-08-10T09:00:07.718Z,61.67
2017-08-10T09:01:18.091Z,61.77
2017-08-10T09:02:28.804Z,61.34
2017-08-10T09:03:38.846Z,61.64
2017-08-10T09:04:49.265Z,61.71
2017-08-10T09:05:59.636Z,62.2
2017-08-10T09:07:09.994Z,62.2
2017-08-10T09:08:20.036Z,62.1
2017-08-10T09:09:30.378Z,62.46
2017-08-10T09:10:40.481Z,62.53
2017-08-10T09:11:50.839Z,63.48
2017-08-10T09:13:01.211Z,63.81
2017-08-10T09:14:11.275Z,63.59
2017-08-10T09:15:21.647Z,63.59
2017-08-10T09:16:31.749Z,63.36
2017-08-10T09:17:42.110Z,62.02
2017-08-10T09:18:54.527Z,61.55
2017-08-10T09:20:04.908Z,61.32
2017-08-10T09:21:15.277Z,61.49
2017-08-10T09:22:25.681Z,61.39
2017-08-10T09:23:35.731Z,61.49
2017-08-10T09:24:45.767Z,61.58
2017-08-10T09:25:56.134Z,61.32
2017-08-10T09:27:06.522Z,61.61
2017-08-10T09:28:16.920Z,61.65
2017-08-10T09:29:27.289Z,61.55
2017-08-10T09:30:37.643Z,61.61
2017-08-10T09:31:48.009Z,61.61
2017-08-10T09:32:58.356Z,61.94
2017-08-10T09:34:08.758Z,61.25
2017-08-10T09:35:18.496Z,60.69
2017-08-10T09:36:28.220Z,60.5
2017-08-10T09:37:38.578Z,60.63
2017-08-10T09:38:48.541Z,60.63
2017-08-10T09:39:58.942Z,60.36
2017-08-10T09:41:09.316Z,60.55
2017-08-10T09:42:19.665Z,60.46
2017-08-10T09:43:30.022Z,60.36
2017-08-10T09:44:40.062Z,60.58
2017-08-10T09:45:50.455Z,60.58
2017-08-10T09:47:00.181Z,60.58
2017-08-10T09:48:10.553Z,61.37
2017-08-10T09:49:20.904Z,61.34
2017-08-10T09:50:31.260Z,61.34
2017-08-10T09:51:41.352Z,61.57
2017-08-10T09:52:51.720Z,61.44
2017-08-10T09:54:01.775Z,61.93
2017-08-10T09:55:11.832Z,60.98
2017-08-10T09:56:21.895Z,60.71
2017-08-10T09:57:31.995Z,60.41
2017-08-10T09:58:42.350Z,60.74
2017-08-10T09:59:52.690Z,60.28
2017-08-10T10:01:03.054Z,59.02
2017-08-10T10:02:13.400Z,59.08
2017-08-10T10:03:23.800Z,58.72
2017-08-10T10:04:33.855Z,58.91
2017-08-10T10:05:43.895Z,59.23
2017-08-10T10:06:54.264Z,59.5
2017-08-10T10:08:04.612Z,59.5
2017-08-10T10:09:15.040Z,60
2017-08-10T10:10:25.081Z,59.9
2017-08-10T10:11:35.463Z,60.19
2017-08-10T10:12:45.825Z,61.08
2017-08-10T10:13:55.887Z,61.45
2017-08-10T10:15:06.302Z,61.72
2017-08-10T10:16:16.370Z,61.88
2017-08-10T10:17:26.413Z,62.05
2017-08-10T10:18:36.766Z,61
2017-08-10T10:19:47.112Z,60.83
2017-08-10T10:20:57.619Z,61.62
2017-08-10T10:22:08.179Z,61.29
2017-08-10T10:23:18.550Z,61.49
2017-08-10T10:24:30.805Z,61.49
2017-08-10T10:25:41.178Z,61.1
2017-08-10T10:26:51.591Z,60.24
2017-08-10T10:28:01.947Z,59.7
2017-08-10T10:29:12.023Z,59.33
2017-08-10T10:30:22.389Z,59.06
2017-08-10T10:31:32.768Z,58.8
2017-08-10T10:32:42.897Z,59.15
2017-08-10T10:33:52.965Z,58.26
2017-08-10T10:35:03.339Z,58.78
2017-08-10T10:36:15.360Z,58.48
2017-08-10T10:37:25.421Z,58.22
2017-08-10T10:38:35.837Z,58.42
2017-08-10T10:39:46.234Z,58.04
2017-08-10T10:40:56.593Z,58.25
2017-08-10T10:42:06.968Z,58.04
2017-08-10T10:43:17.326Z,57.78
2017-08-10T10:44:27.734Z,58.4
2017-08-10T10:45:38.114Z,58.67
2017-08-10T10:46:48.161Z,58.17
2017-08-10T10:47:58.522Z,58.2
2017-08-10T10:49:08.268Z,58.8
2017-08-10T10:50:18.695Z,58.97
2017-08-10T10:51:28.749Z,59.36
2017-08-10T10:52:38.820Z,59.63
2017-08-10T10:53:49.176Z,60.7
2017-08-10T10:54:59.553Z,60.47
2017-08-10T10:56:09.343Z,60.07
2017-08-10T10:57:19.719Z,60.74
2017-08-10T10:58:29.785Z,60.44
2017-08-10T10:59:39.514Z,59.88
2017-08-10T11:00:49.558Z,59.21
2017-08-10T11:02:00.708Z,58.94
2017-08-10T11:03:10.766Z,59
2017-08-10T11:04:20.807Z,58.8
2017-08-10T11:05:30.861Z,58.87
2017-08-10T11:06:41.210Z,59.86
2017-08-10T11:07:51.312Z,59.56
2017-08-10T11:09:01.361Z,60.63
2017-08-10T11:10:11.726Z,60.96
2017-08-10T11:11:21.784Z,61.04
2017-08-10T11:12:32.140Z,60.74
2017-08-10T11:13:42.538Z,60.07
2017-08-10T11:14:52.903Z,59.38
2017-08-10T11:16:03.267Z,59.21
2017-08-10T11:17:13.322Z,59.44
2017-08-10T11:18:23.685Z,60.4
2017-08-10T11:19:34.085Z,60
2017-08-10T11:20:44.112Z,59.11
2017-08-10T11:21:53.846Z,59.04
2017-08-10T11:23:04.232Z,59.36
2017-08-10T11:24:13.976Z,59.23
2017-08-10T11:25:24.410Z,58.87
2017-08-10T11:26:34.781Z,59
2017-08-10T11:27:44.824Z,59
2017-08-10T11:28:55.191Z,59.76
2017-08-10T11:30:05.555Z,59.47
2017-08-10T11:31:15.960Z,59.86
2017-08-10T11:32:26.309Z,60.5
2017-08-10T11:33:36.362Z,61.26
2017-08-10T11:34:47.218Z,60.83
2017-08-10T11:35:57.273Z,61.13
2017-08-10T11:37:07.686Z,60.83
2017-08-10T11:38:18.095Z,61.4
2017-08-10T11:39:28.692Z,61.3
2017-08-10T11:40:39.059Z,61.18
2017-08-10T11:41:49.398Z,61.47
2017-08-10T11:42:59.793Z,61.57
2017-08-10T11:44:10.143Z,61.57
2017-08-10T11:45:20.498Z,61.67
2017-08-10T11:46:30.847Z,61.77
2017-08-10T11:47:41.205Z,62.23
2017-08-10T11:48:51.315Z,61.74
2017-08-10T11:50:01.667Z,62.23
2017-08-10T11:51:13.434Z,61.71
2017-08-10T11:52:23.488Z,62.2
2017-08-10T11:53:33.857Z,61.91
2017-08-10T11:54:43.961Z,61.24
2017-08-10T11:55:54.322Z,60.94
2017-08-10T11:57:04.685Z,60.85
2017-08-10T11:58:15.046Z,60.78
2017-08-10T11:59:25.091Z,60.48
2017-08-10T12:00:35.504Z,59.79
2017-08-10T12:01:45.860Z,58.65
2017-08-10T12:02:56.230Z,58.32
2017-08-10T12:04:06.287Z,57.38
2017-08-10T12:05:16.657Z,57.64
2017-08-10T12:06:26.776Z,58.43
2017-08-10T12:07:37.139Z,58.2
2017-08-10T12:08:47.195Z,58.87
2017-08-10T12:09:57.552Z,59.83
2017-08-10T12:11:07.904Z,59.44
2017-08-10T12:12:17.682Z,59.63
2017-08-10T12:13:28.058Z,60.23
2017-08-10T12:14:38.404Z,60
2017-08-10T12:15:48.778Z,60.4
2017-08-10T12:16:59.547Z,60.37
2017-08-10T12:18:09.646Z,60.37
2017-08-10T12:19:20.015Z,61.07
2017-08-10T12:20:30.367Z,60.94
2017-08-10T12:21:40.727Z,60.91
2017-08-10T12:22:50.790Z,61.4
2017-08-10T12:24:01.218Z,61.57
2017-08-10T12:25:11.592Z,61.64
2017-08-10T12:26:21.954Z,61.64
2017-08-10T12:27:32.008Z,61.24
2017-08-10T12:28:42.382Z,62.2
2017-08-10T12:29:52.802Z,62.3
2017-08-10T12:31:03.172Z,61.8
2017-08-10T12:32:13.539Z,61.88
2017-08-10T12:33:23.892Z,62.27
2017-08-10T12:34:34.239Z,61.08
2017-08-10T12:35:44.345Z,61.78
2017-08-10T12:36:54.393Z,61.68
2017-08-10T12:38:04.468Z,61.58
2017-08-10T12:39:14.817Z,61.48
2017-08-10T12:40:24.887Z,61.29
2017-08-10T12:41:35.315Z,61.21
2017-08-10T12:42:45.660Z,60.72
2017-08-10T12:43:56.038Z,61.02
2017-08-10T12:45:06.727Z,60.94
2017-08-10T12:46:17.084Z,60.35
2017-08-10T12:47:27.227Z,60.58
2017-08-10T12:48:37.577Z,59.59
2017-08-10T12:49:47.922Z,59.35
2017-08-10T12:50:58.280Z,58.88
2017-08-10T12:52:08.637Z,58.72
2017-08-10T12:53:18.742Z,59.21
2017-08-10T12:54:28.784Z,59.7
2017-08-10T12:55:39.149Z,60.27
2017-08-10T12:56:49.508Z,60.07
2017-08-10T12:57:59.569Z,60.54
2017-08-10T12:59:09.993Z,60.34
2017-08-10T13:00:20.033Z,60.44
2017-08-10T13:01:30.104Z,60.34
2017-08-10T13:02:40.442Z,60.54
2017-08-10T13:03:50.503Z,60.44
2017-08-10T13:05:00.917Z,60.37
2017-08-10T13:06:10.962Z,60.37
2017-08-10T13:07:21.337Z,60.77
2017-08-10T13:08:31.701Z,59.97
2017-08-10T13:09:42.040Z,60.1
2017-08-10T13:10:52.450Z,59.8
2017-08-10T13:12:02.812Z,60.4
2017-08-10T13:13:13.369Z,60.17
2017-08-10T13:14:23.734Z,60.86
2017-08-10T13:15:33.784Z,60.77
2017-08-10T13:16:44.191Z,61.23
2017-08-10T13:17:54.565Z,60.83
2017-08-10T13:19:04.625Z,61.13
2017-08-10T13:20:15.075Z,60.83
2017-08-10T13:21:25.440Z,61.04
2017-08-10T13:22:35.552Z,61.04
2017-08-10T13:23:45.918Z,61.13
2017-08-10T13:24:56.302Z,60.83
2017-08-10T13:26:06.335Z,61.43
2017-08-10T13:27:16.377Z,61.93
2017-08-10T13:28:26.774Z,61.43
2017-08-10T13:29:37.154Z,61.8
2017-08-10T13:30:47.518Z,61.99
2017-08-10T13:31:57.563Z,61.96
2017-08-10T13:33:07.610Z,62.66
2017-08-10T13:34:17.705Z,62.33
2017-08-10T13:35:28.072Z,62.5
2017-08-10T13:36:38.453Z,63.46
2017-08-10T13:37:48.835Z,63.72
2017-08-10T13:38:59.188Z,63.79
2017-08-10T13:40:09.609Z,63.76
2017-08-10T13:41:19.979Z,64.36
2017-08-10T13:42:30.337Z,64.12
2017-08-10T13:43:40.704Z,63.8
2017-08-10T13:44:52.412Z,63.87
2017-08-10T13:46:02.831Z,64.26
2017-08-10T13:47:13.204Z,64.06
2017-08-10T13:48:23.568Z,64.72
2017-08-10T13:49:33.933Z,64.89
2017-08-10T13:50:44.306Z,64.69
2017-08-10T13:51:54.723Z,64.95
2017-08-10T13:53:04.780Z,64.95
2017-08-10T13:54:15.551Z,64.62
2017-08-10T13:55:25.582Z,64.73
2017-08-10T13:56:35.638Z,64.89
2017-08-10T13:57:45.413Z,64.89
2017-08-10T13:58:55.764Z,65.09
2017-08-10T14:00:06.155Z,64.76
2017-08-10T14:01:16.517Z,64.96
2017-08-10T14:02:26.878Z,64.83
2017-08-10T14:03:36.366Z,64.83
2017-08-10T14:04:46.405Z,64.83
2017-08-10T14:05:56.784Z,64.79
2017-08-10T14:07:07.145Z,64.67
2017-08-10T14:08:17.198Z,64.93
2017-08-10T14:09:27.598Z,65.58
2017-08-10T14:10:37.649Z,66.01
2017-08-10T14:11:47.702Z,66.17
2017-08-10T14:12:58.077Z,65.65
2017-08-10T14:14:08.454Z,65.39
2017-08-10T14:15:18.864Z,65.66
2017-08-10T14:16:29.249Z,65.66
2017-08-10T14:17:39.293Z,65.33
2017-08-10T14:18:49.758Z,65.66
2017-08-10T14:19:59.499Z,65.95
2017-08-10T14:21:09.910Z,65.63
2017-08-10T14:22:19.951Z,65.33
2017-08-10T14:23:30.354Z,65.5
2017-08-10T14:24:40.741Z,65.2
2017-08-10T14:25:51.108Z,64.97
2017-08-10T14:27:01.515Z,64.59
2017-08-10T14:28:11.867Z,65.14
2017-08-10T14:29:21.904Z,65.33
2017-08-10T14:30:31.950Z,64.94
2017-08-10T14:31:42.337Z,65.2
2017-08-10T14:32:52.739Z,65.2
2017-08-10T14:34:04.596Z,64.62
2017-08-10T14:35:14.644Z,64.49
2017-08-10T14:36:25.012Z,64.49
2017-08-10T14:37:35.396Z,64.98
2017-08-10T14:38:45.829Z,64.75
2017-08-10T14:39:56.224Z,65.04
2017-08-10T14:41:06.596Z,64.81
2017-08-10T14:42:16.954Z,64.62
2017-08-10T14:43:27.318Z,64.81
2017-08-10T14:44:37.726Z,64.43
2017-08-10T14:45:48.094Z,64.72
2017-08-10T14:46:58.154Z,64.23
2017-08-10T14:48:08.508Z,64.23
2017-08-10T14:49:18.853Z,64.17
2017-08-10T14:50:28.964Z,63.87
2017-08-10T14:51:39.316Z,63.97
2017-08-10T14:52:49.364Z,63.97
2017-08-10T14:53:59.412Z,64.1
2017-08-10T14:55:09.772Z,64.1
2017-08-10T14:56:20.175Z,63.52
2017-08-10T14:57:30.544Z,63.42
2017-08-10T14:58:40.913Z,63.75
2017-08-10T14:59:50.955Z,63.75
2017-08-10T15:01:00.713Z,63.35
2017-08-10T15:02:11.123Z,62.96
2017-08-10T15:03:21.147Z,63.26
2017-08-10T15:04:31.501Z,63.29
2017-08-10T15:05:41.549Z,63.09
2017-08-10T15:06:51.915Z,62.99
2017-08-10T15:08:02.019Z,62.83
2017-08-10T15:09:12.395Z,63.02
2017-08-10T15:10:22.754Z,62.15
2017-08-10T15:11:32.913Z,62.28
2017-08-10T15:12:43.303Z,62.57
2017-08-10T15:13:53.706Z,62.21
2017-08-10T15:15:03.437Z,62.02
2017-08-10T15:16:13.485Z,61.95
2017-08-10T15:17:24.003Z,61.36
2017-08-10T15:18:34.372Z,61.69
2017-08-10T15:19:44.768Z,60.84
2017-08-10T15:20:55.116Z,61.13
2017-08-10T15:22:05.469Z,60.86
2017-08-10T15:23:15.842Z,61.45
2017-08-10T15:24:25.897Z,61.45
2017-08-10T15:25:35.994Z,61.35
2017-08-10T15:26:46.356Z,62.04
2017-08-10T15:27:56.710Z,61.74
2017-08-10T15:29:06.774Z,61.94
2017-08-10T15:30:17.126Z,61.94
2017-08-10T15:31:27.547Z,62.43
2017-08-10T15:32:37.921Z,62.7
2017-08-10T15:33:48.264Z,62.73
2017-08-10T15:34:58.639Z,63.09
2017-08-10T15:36:09.001Z,63.09
2017-08-10T15:37:19.415Z,63.24
2017-08-10T15:38:29.788Z,63.05
2017-08-10T15:39:40.148Z,63.34
2017-08-10T15:40:50.527Z,63.21